Time;durP1;ratioP1;P1;durP2;ratioP2;P2;SDS_P1;SDS_P2;PMS_P1;PMS_P2;Temp;Humidity;BMP_temperature;BMP_pressure;BME280_temperature;BME280_humidity;BME280_pressure;Samples;Min_cycle;Max_cycle;Signal;HPM_P1;HPM_P2
2022/01/20 00:03:22;;;;;;;98.60;53.15;;;0.20;2201.60;;;;;;4952757;28;20045;-72
2022/01/20 00:27:29;;;;;;;76.30;41.85;;;0.20;2201.60;;;;;;4953254;28;20058;-72
2022/01/20 00:32:31;;;;;;;74.80;41.42;;;0.10;2201.60;;;;;;4953146;28;20038;-71
2022/01/20 00:37:26;;;;;;;85.47;44.47;;;0.20;2201.60;;;;;;5010178;28;20248;-71
2022/01/20 00:39:52;;;;;;;80.88;44.75;;;0.10;2201.60;;;;;;5013191;28;20029;-71
2022/01/20 00:42:20;;;;;;;72.50;41.20;;;0.20;2201.60;;;;;;5013085;28;20037;-71
2022/01/20 00:44:46;;;;;;;67.95;39.63;;;0.20;2201.60;;;;;;5013785;28;20101;-71
2022/01/20 00:47:14;;;;;;;71.25;38.20;;;0.10;2201.60;;;;;;5013003;28;20030;-71
2022/01/20 00:49:40;;;;;;;65.00;35.28;;;0.10;2201.60;;;;;;4995162;28;20037;-72
2022/01/20 00:52:06;;;;;;;61.95;34.03;;;0.20;2201.60;;;;;;4995025;28;20025;-71
2022/01/20 00:54:32;;;;;;;72.45;36.53;;;0.20;2201.60;;;;;;5012975;28;20030;-73
2022/01/20 00:56:58;;;;;;;72.28;37.35;;;0.20;2201.60;;;;;;4997917;28;20042;-71
2022/01/20 00:59:26;;;;;;;66.82;35.75;;;0.20;2201.60;;;;;;5012667;28;20124;-72
2022/01/20 01:01:52;;;;;;;55.50;32.95;;;0.20;2201.60;;;;;;5012278;28;20061;-72
2022/01/20 01:04:18;;;;;;;56.30;34.55;;;0.20;2201.60;;;;;;5012821;28;20123;-71
2022/01/20 01:09:12;;;;;;;63.20;36.13;;;0.20;2201.60;;;;;;5009176;28;20037;-71
2022/01/20 01:11:40;;;;;;;70.20;34.53;;;0.30;2201.60;;;;;;5000856;28;20038;-71
2022/01/20 01:14:06;;;;;;;57.70;32.65;;;0.20;2201.60;;;;;;4994629;28;20512;-71
2022/01/20 01:24:36;;;;;;;62.13;34.47;;;0.20;2201.60;;;;;;5011714;28;20084;-70
2022/01/20 01:27:02;;;;;;;66.15;35.67;;;0.20;2201.60;;;;;;4997411;28;20037;-70
2022/01/20 01:32:15;;;;;;;65.47;33.30;;;0.20;2201.60;;;;;;5012735;28;20519;-71
2022/01/20 01:34:47;;;;;;;60.65;34.45;;;0.20;2201.60;;;;;;5011976;28;20104;-71
2022/01/20 01:39:57;;;;;;;61.08;33.78;;;0.20;2201.60;;;;;;5012845;28;20512;-70
2022/01/20 01:42:29;;;;;;;60.90;35.55;;;0.20;2201.60;;;;;;5012188;28;20045;-71
2022/01/20 01:44:57;;;;;;;70.57;33.05;;;0.10;2201.60;;;;;;5012849;28;20026;-71
2022/01/20 01:47:22;;;;;;;50.67;31.90;;;0.10;2201.60;;;;;;4994591;28;20082;-70
2022/01/20 01:49:48;;;;;;;57.40;32.08;;;0.10;2201.60;;;;;;5012502;28;20029;-71
2022/01/20 01:52:14;;;;;;;61.03;34.63;;;0.10;2201.60;;;;;;5012829;28;20504;-70
2022/01/20 01:54:39;;;;;;;66.65;33.33;;;0.10;2201.60;;;;;;5011952;28;20068;-71
2022/01/20 01:57:09;;;;;;;61.85;34.50;;;0.10;2201.60;;;;;;5012805;28;20038;-71
2022/01/20 01:59:35;;;;;;;71.90;36.95;;;0.00;2201.60;;;;;;4994382;28;20487;-71
2022/01/20 02:02:00;;;;;;;64.22;36.50;;;0.00;2201.60;;;;;;5011986;28;20034;-70
2022/01/20 02:04:26;;;;;;;76.63;36.15;;;0.00;2201.60;;;;;;4995092;28;20069;-71
2022/01/20 02:07:30;;;;;;;71.90;35.63;;;0.00;2201.60;;;;;;4993032;28;20113;-71
2022/01/20 02:20:24;;;;;;;67.38;33.80;;;0.10;2201.60;;;;;;4992230;28;20046;-71
2022/01/20 02:22:51;;;;;;;62.78;34.50;;;0.10;2201.60;;;;;;4992336;28;20470;-70
2022/01/20 02:25:22;;;;;;;72.97;36.78;;;0.10;2201.60;;;;;;4992335;28;20466;-70
2022/01/20 02:27:48;;;;;;;74.10;36.22;;;0.10;2201.60;;;;;;4974471;28;20042;-71
2022/01/20 02:30:16;;;;;;;70.93;37.67;;;0.10;2201.60;;;;;;4992433;28;20166;-70
2022/01/20 02:32:42;;;;;;;68.97;38.55;;;0.10;2201.60;;;;;;4990670;28;20034;-70
2022/01/20 02:35:10;;;;;;;62.60;37.85;;;0.10;2201.60;;;;;;4991079;28;20034;-70
2022/01/20 02:37:38;;;;;;;72.55;38.78;;;0.20;2201.60;;;;;;4996216;28;20112;-70
2022/01/20 02:40:31;;;;;;;59.05;37.63;;;0.10;2201.60;;;;;;5010530;28;20034;-70
2022/01/20 02:45:35;;;;;;;77.40;37.35;;;0.10;2201.60;;;;;;5011368;28;20515;-70
2022/01/20 02:48:00;;;;;;;73.93;39.15;;;0.10;2201.60;;;;;;5011644;28;20703;-71
2022/01/20 02:50:26;;;;;;;74.57;40.08;;;0.10;2201.60;;;;;;5009697;28;20045;-70
2022/01/20 02:52:52;;;;;;;64.60;38.67;;;0.10;2201.60;;;;;;5010682;28;20026;-71
2022/01/20 02:55:18;;;;;;;74.03;39.33;;;0.10;2201.60;;;;;;5003432;28;20045;-71
2022/01/20 02:57:43;;;;;;;78.38;38.42;;;0.10;2201.60;;;;;;4973634;28;20053;-72
2022/01/20 03:00:10;;;;;;;66.25;41.15;;;0.10;2201.60;;;;;;4974440;28;20146;-71
2022/01/20 03:02:35;;;;;;;74.40;40.50;;;0.10;2201.60;;;;;;4974120;28;20069;-71
2022/01/20 03:05:01;;;;;;;73.70;39.90;;;0.00;2201.60;;;;;;4974770;28;20497;-71
2022/01/20 03:07:27;;;;;;;86.30;46.05;;;0.10;2201.60;;;;;;4990309;28;20041;-71
2022/01/20 03:09:53;;;;;;;73.53;43.78;;;0.10;2201.60;;;;;;4992127;28;20486;-71
2022/01/20 03:12:18;;;;;;;71.80;41.72;;;0.00;2201.60;;;;;;4991670;28;20030;-71
2022/01/20 03:14:44;;;;;;;78.00;43.42;;;0.10;2201.60;;;;;;4974495;28;20121;-71
2022/01/20 03:17:11;;;;;;;81.00;44.67;;;0.10;2201.60;;;;;;4991358;28;20034;-71
2022/01/20 03:19:36;;;;;;;81.30;45.28;;;0.10;2201.60;;;;;;4991227;28;20038;-72
2022/01/20 03:22:02;;;;;;;81.70;44.72;;;0.10;2201.60;;;;;;4974312;28;20375;-71
2022/01/20 03:24:28;;;;;;;98.95;45.70;;;0.10;2201.60;;;;;;4991617;28;20042;-71
2022/01/20 03:26:54;;;;;;;79.25;45.83;;;0.00;2201.60;;;;;;4978454;28;20034;-70
2022/01/20 03:29:20;;;;;;;75.32;43.63;;;0.00;2201.60;;;;;;4995426;28;20031;-71
2022/01/20 03:31:45;;;;;;;78.38;44.63;;;0.10;2201.60;;;;;;4978202;28;20478;-71
2022/01/20 03:34:11;;;;;;;84.05;51.38;;;0.00;2201.60;;;;;;4995326;28;20130;-71
2022/01/20 03:36:37;;;;;;;84.60;49.05;;;0.10;2201.60;;;;;;4995757;28;20093;-70
2022/01/20 03:39:04;;;;;;;85.88;48.30;;;0.10;2201.60;;;;;;4994884;28;20509;-70
2022/01/20 03:41:30;;;;;;;77.82;49.88;;;0.00;2201.60;;;;;;4978345;28;20125;-71
2022/01/20 03:43:55;;;;;;;83.60;49.15;;;0.10;2201.60;;;;;;4977374;28;20122;-70
2022/01/20 03:46:23;;;;;;;85.40;48.15;;;0.10;2201.60;;;;;;4977638;28;20042;-71
2022/01/20 03:48:51;;;;;;;92.25;51.28;;;0.10;2201.60;;;;;;4995725;28;20492;-70
2022/01/20 03:51:22;;;;;;;91.50;52.60;;;0.00;2201.60;;;;;;4994550;28;20113;-72
2022/01/20 03:53:53;;;;;;;98.55;56.40;;;0.00;2201.60;;;;;;4977834;28;20031;-71
2022/01/20 03:56:20;;;;;;;95.32;55.10;;;12.90;2201.60;;;;;;4991818;28;20052;-71
2022/01/20 03:58:47;;;;;;;101.00;56.55;;;0.00;2201.60;;;;;;5015285;28;20038;-71
2022/01/20 04:01:17;;;;;;;108.55;65.72;;;0.00;2201.60;;;;;;4995946;28;20042;-70
2022/01/20 04:03:44;;;;;;;103.45;60.50;;;0.00;2201.60;;;;;;4993902;28;20062;-71
2022/01/20 04:06:10;;;;;;;123.68;68.25;;;0.00;2201.60;;;;;;4995167;28;20034;-71
2022/01/20 04:08:39;;;;;;;123.65;72.47;;;0.00;2201.60;;;;;;4989372;28;20045;-71
2022/01/20 04:11:11;;;;;;;134.13;74.85;;;0.00;2201.60;;;;;;5013814;28;20092;-70
2022/01/20 04:13:37;;;;;;;140.25;79.07;;;0.00;2201.60;;;;;;4994497;28;20037;-70
2022/01/20 04:16:18;;;;;;;142.10;87.50;;;0.00;2201.60;;;;;;4995064;28;20026;-70
2022/01/20 04:18:52;;;;;;;154.45;90.63;;;0.00;2201.60;;;;;;4977506;28;20062;-70
2022/01/20 04:21:27;;;;;;;158.05;91.55;;;12.90;2201.60;;;;;;4976339;28;20065;-71
2022/01/20 04:23:53;;;;;;;134.57;84.53;;;12.90;2201.60;;;;;;4994760;28;20140;-71
2022/01/20 04:26:20;;;;;;;123.10;73.93;;;12.90;2201.60;;;;;;4976786;28;20038;-70
2022/01/20 04:28:46;;;;;;;134.13;68.95;;;12.90;2201.60;;;;;;4977044;28;20042;-70
2022/01/20 04:31:12;;;;;;;107.30;65.20;;;12.90;2201.60;;;;;;4993841;28;20164;-71
2022/01/20 04:33:38;;;;;;;112.03;61.78;;;12.90;2201.60;;;;;;4976343;28;20031;-70
2022/01/20 04:36:07;;;;;;;104.15;60.40;;;12.90;2201.60;;;;;;4993443;28;20037;-70
2022/01/20 04:38:33;;;;;;;102.85;59.25;;;12.90;2201.60;;;;;;4988125;28;20038;-71
2022/01/20 04:40:59;;;;;;;104.75;61.75;;;12.90;2201.60;;;;;;5013644;28;20393;-70
2022/01/20 04:43:26;;;;;;;109.45;57.08;;;13.00;2201.60;;;;;;4986571;28;20382;-70
2022/01/20 04:46:02;;;;;;;117.75;66.47;;;12.90;2201.60;;;;;;4992867;28;20442;-70
2022/01/20 04:59:05;;;;;;;108.97;62.65;;;13.10;2201.60;;;;;;4993790;28;20065;-71
2022/01/20 05:01:31;;;;;;;108.75;61.95;;;13.10;2201.60;;;;;;4994314;28;20505;-71
2022/01/20 05:03:58;;;;;;;107.15;63.17;;;13.10;2201.60;;;;;;4975818;28;20039;-71
2022/01/20 05:06:23;;;;;;;103.93;60.10;;;13.10;2201.60;;;;;;4994179;28;20401;-71
2022/01/20 05:08:51;;;;;;;101.25;59.42;;;13.10;2201.60;;;;;;5006837;28;20037;-71
2022/01/20 05:11:17;;;;;;;103.80;57.85;;;13.10;2201.60;;;;;;4996110;28;20489;-71
2022/01/20 05:13:43;;;;;;;101.95;57.15;;;13.10;2201.60;;;;;;5012928;28;20081;-71
2022/01/20 05:16:09;;;;;;;104.25;57.25;;;13.10;2201.60;;;;;;5012676;28;20473;-71
2022/01/20 05:18:35;;;;;;;103.30;58.33;;;13.10;2201.60;;;;;;5012286;28;20060;-71
2022/01/20 05:21:01;;;;;;;107.93;58.13;;;13.10;2201.60;;;;;;4994437;28;20064;-70
2022/01/20 05:23:27;;;;;;;96.45;54.78;;;13.10;2201.60;;;;;;5012596;28;20069;-70
2022/01/20 05:25:53;;;;;;;96.63;54.75;;;13.10;2201.60;;;;;;5011354;28;20073;-71
2022/01/20 05:28:19;;;;;;;97.45;55.22;;;13.10;2201.60;;;;;;5004088;28;20482;-71
2022/01/20 05:30:45;;;;;;;98.93;58.63;;;13.10;2201.60;;;;;;4992028;28;20035;-72
2022/01/20 05:33:11;;;;;;;108.53;61.25;;;13.10;2201.60;;;;;;4992534;28;20449;-72
2022/01/20 05:35:37;;;;;;;109.70;59.65;;;13.20;2201.60;;;;;;4993022;28;20019;-71
2022/01/20 05:38:03;;;;;;;106.22;60.53;;;13.20;2201.60;;;;;;5005812;28;20054;-72
2022/01/20 05:40:29;;;;;;;112.07;63.80;;;13.20;2201.60;;;;;;5008630;28;20046;-72
2022/01/20 05:42:55;;;;;;;116.50;65.95;;;13.10;2201.60;;;;;;5012527;28;20083;-72
2022/01/20 05:45:21;;;;;;;117.00;68.85;;;13.10;2201.60;;;;;;5012780;28;20038;-71
2022/01/20 05:47:49;;;;;;;122.68;75.43;;;13.10;2201.60;;;;;;5010647;28;20137;-71
2022/01/20 05:50:18;;;;;;;133.73;71.75;;;13.10;2201.60;;;;;;5012710;28;20053;-72
2022/01/20 05:52:46;;;;;;;138.80;81.35;;;13.10;2201.60;;;;;;5010092;28;20042;-71
2022/01/20 05:55:15;;;;;;;158.82;92.57;;;13.10;2201.60;;;;;;5012687;28;20725;-71
2022/01/20 05:57:41;;;;;;;189.00;111.10;;;13.20;2201.60;;;;;;5011934;28;20385;-71
2022/01/20 06:00:17;;;;;;;201.32;119.70;;;13.30;2201.60;;;;;;4995374;28;20060;-71
2022/01/20 06:05:27;;;;;;;205.80;123.68;;;13.30;2201.60;;;;;;5012177;28;20084;-72
2022/01/20 06:07:53;;;;;;;230.73;133.00;;;13.20;2201.60;;;;;;5010625;28;20129;-71
2022/01/20 06:10:18;;;;;;;234.93;133.63;;;13.20;2201.60;;;;;;5011726;28;20033;-71
2022/01/20 06:12:44;;;;;;;217.75;129.23;;;13.30;2201.60;;;;;;4982670;28;20043;-70
2022/01/20 06:15:10;;;;;;;205.13;122.70;;;13.20;2201.60;;;;;;4992506;28;20089;-71
2022/01/20 06:17:37;;;;;;;204.45;118.18;;;13.20;2201.60;;;;;;4992224;28;20034;-71
2022/01/20 06:20:07;;;;;;;168.23;98.20;;;13.20;2201.60;;;;;;4992768;28;20033;-71
2022/01/20 06:22:33;;;;;;;155.10;86.18;;;13.20;2201.60;;;;;;4974729;28;20788;-71
2022/01/20 06:24:59;;;;;;;142.80;82.43;;;13.10;2201.60;;;;;;4992677;28;20039;-71
2022/01/20 06:27:25;;;;;;;140.27;79.72;;;13.10;2201.60;;;;;;5004207;28;20507;-71
2022/01/20 06:29:50;;;;;;;153.68;84.25;;;13.00;2201.60;;;;;;5012153;28;20088;-71
2022/01/20 06:32:16;;;;;;;166.18;91.88;;;13.00;2201.60;;;;;;4993395;28;20045;-71
2022/01/20 06:34:42;;;;;;;136.02;76.00;;;12.90;2201.60;;;;;;4993782;28;20037;-71
2022/01/20 06:37:08;;;;;;;128.55;71.45;;;12.90;2201.60;;;;;;4993305;28;20034;-71
2022/01/20 06:39:33;;;;;;;124.65;68.70;;;12.90;2201.60;;;;;;5011626;28;20042;-71
2022/01/20 06:41:59;;;;;;;136.80;74.15;;;12.90;2201.60;;;;;;5010130;28;20117;-70
2022/01/20 06:44:25;;;;;;;131.45;71.85;;;12.90;2201.60;;;;;;4993328;28;20556;-71
2022/01/20 06:46:51;;;;;;;129.23;75.80;;;0.00;2201.60;;;;;;5007632;28;20042;-71
2022/01/20 06:49:18;;;;;;;139.10;76.65;;;0.00;2201.60;;;;;;5011116;28;20037;-71
2022/01/20 06:51:45;;;;;;;144.82;79.80;;;0.10;2201.60;;;;;;4993400;28;20092;-71
2022/01/20 06:54:11;;;;;;;151.70;85.47;;;0.10;2201.60;;;;;;4993484;28;20034;-71
2022/01/20 06:56:37;;;;;;;148.27;85.80;;;0.20;2201.60;;;;;;5011577;28;20054;-72
2022/01/20 06:59:03;;;;;;;162.05;88.20;;;0.30;2201.60;;;;;;5009317;28;20042;-70
2022/01/20 07:01:29;;;;;;;154.52;90.82;;;0.40;2201.60;;;;;;5011873;28;20370;-71
2022/01/20 07:03:55;;;;;;;158.57;91.55;;;0.40;2201.60;;;;;;5011197;28;20034;-71
2022/01/20 07:06:21;;;;;;;136.35;77.97;;;0.50;2201.60;;;;;;4994120;28;20049;-71
2022/01/20 07:08:46;;;;;;;131.60;74.07;;;0.60;2201.60;;;;;;4997461;28;20105;-72
2022/01/20 07:11:12;;;;;;;120.47;66.82;;;0.70;2201.60;;;;;;5005208;28;20026;-71
2022/01/20 07:13:38;;;;;;;117.20;63.15;;;0.80;2201.60;;;;;;5011542;28;20057;-71
2022/01/20 07:16:04;;;;;;;117.72;65.85;;;25.60;2201.60;;;;;;5010461;28;20043;-71
2022/01/20 07:18:30;;;;;;;111.55;63.08;;;25.60;2201.60;;;;;;5011361;28;20071;-70
2022/01/20 07:20:56;;;;;;;118.00;65.40;;;25.70;2201.60;;;;;;5010425;28;20026;-70
2022/01/20 07:23:22;;;;;;;114.53;68.63;;;25.80;2201.60;;;;;;5011064;28;20033;-71
2022/01/20 07:25:47;;;;;;;110.28;67.80;;;26.00;2201.60;;;;;;4992291;28;20069;-71
2022/01/20 07:28:13;;;;;;;115.22;64.85;;;26.10;2201.60;;;;;;4992916;28;20042;-71
2022/01/20 07:30:39;;;;;;;125.78;70.35;;;26.10;2201.60;;;;;;4992063;28;20026;-71
2022/01/20 07:33:05;;;;;;;126.10;66.78;;;26.30;2201.60;;;;;;4992610;28;20025;-71
2022/01/20 07:35:32;;;;;;;120.70;71.05;;;26.40;2201.60;;;;;;5010268;28;20069;-71
2022/01/20 07:37:57;;;;;;;102.47;63.80;;;26.40;2201.60;;;;;;5010178;28;20499;-70
2022/01/20 07:40:23;;;;;;;103.78;61.95;;;26.50;2201.60;;;;;;4992641;28;20046;-70
2022/01/20 07:42:50;;;;;;;104.25;61.10;;;26.50;2201.60;;;;;;5009816;28;20389;-71
2022/01/20 07:45:17;;;;;;;112.85;63.42;;;51.20;2227.20;;;;;;5010663;28;20108;-71
2022/01/20 07:47:43;;;;;;;115.10;67.53;;;51.20;2227.20;;;;;;4991328;28;20042;-71
2022/01/20 07:50:10;;;;;;;124.57;68.97;;;51.20;2227.20;;;;;;5009421;28;20117;-70
2022/01/20 07:52:36;;;;;;;106.70;64.80;;;51.20;2227.20;;;;;;5008963;28;20033;-70
2022/01/20 07:55:02;;;;;;;105.72;64.60;;;51.20;2227.20;;;;;;5009742;28;20050;-71
2022/01/20 07:57:28;;;;;;;110.55;61.63;;;26.50;2201.60;;;;;;5009908;28;20057;-71
2022/01/20 07:59:54;;;;;;;107.55;61.80;;;51.20;2227.20;;;;;;5010641;28;20488;-70
2022/01/20 08:02:20;;;;;;;102.13;58.03;;;51.20;2227.20;;;;;;4989130;28;20045;-71
2022/01/20 08:04:46;;;;;;;103.05;63.35;;;51.20;2227.20;;;;;;4991331;28;20048;-70
2022/01/20 08:07:11;;;;;;;118.28;62.90;;;51.20;2227.20;;;;;;5010545;28;20037;-70
2022/01/20 08:09:40;;;;;;;105.55;62.95;;;51.20;2227.20;;;;;;5009511;28;20037;-71
2022/01/20 08:12:06;;;;;;;110.22;63.30;;;51.20;2227.20;;;;;;5013096;28;20699;-71
2022/01/20 08:14:33;;;;;;;101.53;60.55;;;51.20;2227.20;;;;;;5013276;28;20385;-71
2022/01/20 08:16:58;;;;;;;105.90;60.58;;;26.50;2201.60;;;;;;5013659;28;20026;-71
2022/01/20 08:19:24;;;;;;;101.65;60.80;;;51.20;2227.20;;;;;;5013038;28;20049;-71
2022/01/20 08:21:50;;;;;;;94.38;58.47;;;51.20;2227.20;;;;;;5013547;28;20374;-70
2022/01/20 08:24:16;;;;;;;101.95;61.33;;;51.30;2227.20;;;;;;5008463;28;20033;-71
2022/01/20 08:26:41;;;;;;;92.82;55.67;;;51.30;2227.20;;;;;;5013003;28;20049;-70
2022/01/20 08:29:07;;;;;;;93.88;57.05;;;51.40;2227.20;;;;;;5013108;28;20030;-71
2022/01/20 08:31:33;;;;;;;103.78;62.63;;;51.40;2227.20;;;;;;5012685;28;20421;-72
2022/01/20 08:33:59;;;;;;;115.85;69.32;;;51.40;2227.20;;;;;;5013414;28;20033;-72
2022/01/20 08:36:25;;;;;;;113.75;69.22;;;51.40;2227.20;;;;;;5000669;28;20034;-71
2022/01/20 08:38:51;;;;;;;114.03;65.38;;;51.50;2227.20;;;;;;5012864;28;20057;-71
2022/01/20 08:41:17;;;;;;;117.35;67.15;;;51.50;2227.20;;;;;;5004412;28;20717;-73
2022/01/20 08:43:43;;;;;;;158.23;93.60;;;51.60;2227.20;;;;;;5013117;28;20124;-72
2022/01/20 08:46:10;;;;;;;171.35;101.28;;;51.60;2227.20;;;;;;4995124;28;20053;-72
2022/01/20 08:48:38;;;;;;;154.82;94.25;;;51.60;2227.20;;;;;;5012204;28;20033;-73
2022/01/20 08:51:05;;;;;;;129.40;80.35;;;51.60;2227.20;;;;;;4987430;28;20109;-72
2022/01/20 08:53:31;;;;;;;128.35;83.32;;;51.60;2227.20;;;;;;4992439;28;20037;-73
2022/01/20 08:56:01;;;;;;;124.43;77.40;;;51.60;2227.20;;;;;;4977460;28;20038;-73
2022/01/20 08:58:27;;;;;;;111.43;68.60;;;51.60;2227.20;;;;;;4989047;28;20393;-72
2022/01/20 09:00:52;;;;;;;114.63;71.28;;;51.70;2227.20;;;;;;4993760;28;20035;-73
2022/01/20 09:03:21;;;;;;;110.95;65.78;;;51.70;2227.20;;;;;;4963902;28;20572;-72
2022/01/20 09:05:46;;;;;;;116.32;66.97;;;51.60;2227.20;;;;;;4991396;28;20121;-72
2022/01/20 09:08:13;;;;;;;118.28;67.43;;;51.60;2227.20;;;;;;4967875;28;20449;-72
2022/01/20 09:10:42;;;;;;;109.55;61.28;;;51.70;2227.20;;;;;;4976037;28;20035;-72
2022/01/20 09:15:55;;;;;;;98.88;62.33;;;51.70;2227.20;;;;;;4992833;28;20048;-72
2022/01/20 09:18:22;;;;;;;106.65;63.35;;;51.60;2227.20;;;;;;4993395;28;20038;-72
2022/01/20 09:20:48;;;;;;;103.07;59.47;;;51.60;2227.20;;;;;;4969862;28;20045;-72
2022/01/20 09:23:14;;;;;;;109.60;61.25;;;51.60;2227.20;;;;;;4992876;28;20034;-71
2022/01/20 09:25:41;;;;;;;92.03;57.35;;;51.70;2227.20;;;;;;4971630;28;20158;-73
2022/01/20 09:28:07;;;;;;;98.68;56.88;;;51.70;2227.20;;;;;;4975542;28;20038;-72
2022/01/20 09:30:35;;;;;;;97.05;57.13;;;51.70;2227.20;;;;;;4992654;28;20109;-71
2022/01/20 09:35:33;;;;;;;92.13;56.80;;;51.70;2227.20;;;;;;4992067;28;20049;-74
2022/01/20 09:38:04;;;;;;;96.13;57.83;;;51.80;2227.20;;;;;;4991638;28;20030;-71
2022/01/20 09:40:34;;;;;;;101.65;60.88;;;51.80;2227.20;;;;;;4986028;28;20042;-71
2022/01/20 09:43:00;;;;;;;102.72;59.35;;;51.80;2227.20;;;;;;4991256;28;20038;-71
2022/01/20 09:45:26;;;;;;;105.90;57.30;;;51.80;2227.20;;;;;;4974859;28;20084;-71
2022/01/20 09:47:53;;;;;;;102.32;63.67;;;51.80;2227.20;;;;;;4974874;28;20026;-72
2022/01/20 09:50:21;;;;;;;102.10;59.30;;;51.90;2227.20;;;;;;4992253;28;20442;-71
2022/01/20 09:52:48;;;;;;;84.75;51.72;;;51.90;2227.20;;;;;;4968075;28;20551;-71
2022/01/20 09:55:14;;;;;;;100.68;57.35;;;51.90;2227.20;;;;;;4996167;28;20484;-71
2022/01/20 09:57:40;;;;;;;98.47;57.95;;;51.80;2227.20;;;;;;5010091;28;20109;-71
2022/01/20 10:00:09;;;;;;;89.95;53.55;;;51.80;2227.20;;;;;;5010062;28;20516;-72
2022/01/20 10:02:35;;;;;;;111.45;62.88;;;51.90;2227.20;;;;;;4993103;28;20034;-72
2022/01/20 10:05:01;;;;;;;87.15;50.20;;;51.80;2227.20;;;;;;4990650;28;20030;-72
2022/01/20 10:07:35;;;;;;;85.35;50.85;;;51.70;2227.20;;;;;;5009792;28;20032;-73
2022/01/20 10:10:01;;;;;;;98.88;61.03;;;51.90;2227.20;;;;;;4991259;28;20041;-71
2022/01/20 10:12:33;;;;;;;108.57;60.30;;;52.00;2227.20;;;;;;5009336;28;20068;-72
2022/01/20 10:15:00;;;;;;;90.45;55.53;;;52.00;2227.20;;;;;;5007501;28;20045;-73
2022/01/20 10:17:30;;;;;;;80.97;50.47;;;52.10;2227.20;;;;;;5009868;28;20389;-73
2022/01/20 10:20:07;;;;;;;80.95;50.65;;;76.80;2227.20;;;;;;5009534;28;20029;-72
2022/01/20 10:22:36;;;;;;;81.90;48.03;;;76.90;2227.20;;;;;;4991860;28;20022;-72
2022/01/20 10:25:09;;;;;;;87.07;48.83;;;76.90;2227.20;;;;;;5009270;28;20025;-72
2022/01/20 10:27:50;;;;;;;83.65;50.45;;;77.00;2227.20;;;;;;4991837;28;20080;-73
2022/01/20 10:30:17;;;;;;;89.63;52.60;;;76.90;2227.20;;;;;;4988211;28;20038;-73
2022/01/20 10:32:51;;;;;;;91.53;51.30;;;77.00;2227.20;;;;;;4992068;28;20026;-74
2022/01/20 10:35:24;;;;;;;80.22;48.65;;;77.00;2227.20;;;;;;4984883;28;20401;-73
2022/01/20 10:37:59;;;;;;;88.40;49.22;;;77.20;2227.20;;;;;;5011046;28;20025;-73
2022/01/20 10:40:26;;;;;;;84.03;51.75;;;77.40;2227.20;;;;;;4983006;28;20401;-73
2022/01/20 10:42:52;;;;;;;92.00;53.40;;;77.50;2227.20;;;;;;5010080;28;20053;-73
2022/01/20 10:45:23;;;;;;;84.82;53.47;;;77.60;2227.20;;;;;;4992710;28;20594;-72
2022/01/20 10:47:54;;;;;;;86.45;53.10;;;77.70;2227.20;;;;;;4993760;28;20033;-73
2022/01/20 10:50:29;;;;;;;85.35;52.92;;;77.70;2227.20;;;;;;5010770;28;20037;-73
2022/01/20 10:52:55;;;;;;;95.55;53.30;;;102.40;2227.20;;;;;;4993679;28;20397;-73
2022/01/20 10:55:24;;;;;;;85.95;48.17;;;102.40;2227.20;;;;;;4992048;28;20041;-76
2022/01/20 10:57:53;;;;;;;88.57;53.22;;;77.70;2227.20;;;;;;5011258;28;20041;-73
2022/01/20 11:00:22;;;;;;;87.78;49.65;;;102.40;2227.20;;;;;;4990599;28;20035;-73
2022/01/20 11:02:58;;;;;;;85.72;53.90;;;102.40;2227.20;;;;;;4993111;28;20038;-73
2022/01/20 11:05:25;;;;;;;83.15;52.05;;;102.40;2227.20;;;;;;5009683;28;20411;-73
2022/01/20 11:07:52;;;;;;;88.57;50.60;;;102.50;2227.20;;;;;;4992865;28;20080;-73
2022/01/20 11:10:18;;;;;;;88.03;53.72;;;102.40;2227.20;;;;;;5008579;28;20045;-73
2022/01/20 11:12:46;;;;;;;83.05;52.42;;;102.40;2227.20;;;;;;5010480;28;20036;-75
2022/01/20 11:15:15;;;;;;;95.47;56.42;;;102.40;2227.20;;;;;;5011335;28;20073;-74
2022/01/20 11:17:42;;;;;;;100.10;58.42;;;102.50;2227.20;;;;;;4993488;28;20037;-74
2022/01/20 11:20:15;;;;;;;91.53;54.60;;;102.60;2227.20;;;;;;4992665;28;20122;-74
2022/01/20 11:23:02;;;;;;;91.55;53.85;;;102.60;2227.20;;;;;;5009054;28;20030;-74
2022/01/20 11:25:30;;;;;;;100.32;57.40;;;102.90;2227.20;;;;;;5010604;28;20501;-74
2022/01/20 11:28:08;;;;;;;95.13;57.83;;;103.20;2227.20;;;;;;5010415;28;20036;-75
2022/01/20 11:30:35;;;;;;;89.75;52.05;;;128.00;2252.80;;;;;;4993396;28;20781;-74
2022/01/20 11:33:12;;;;;;;97.72;60.60;;;128.10;2252.80;;;;;;5010437;28;20104;-74
2022/01/20 11:35:44;;;;;;;90.88;53.50;;;128.10;2252.80;;;;;;4985666;28;20070;-75
2022/01/20 11:38:12;;;;;;;92.53;57.08;;;128.10;2252.80;;;;;;5010679;28;20034;-75
2022/01/20 11:40:54;;;;;;;89.03;51.45;;;128.10;2252.80;;;;;;4992930;28;20045;-74
2022/01/20 11:43:36;;;;;;;81.90;50.92;;;128.00;2252.80;;;;;;5011340;28;20399;-74
2022/01/20 11:46:15;;;;;;;76.03;47.85;;;128.00;2252.80;;;;;;4994793;28;20811;-74
2022/01/20 11:48:53;;;;;;;71.90;45.92;;;103.30;2227.20;;;;;;5002858;28;20089;-74
2022/01/20 11:51:20;;;;;;;69.55;44.75;;;128.00;2252.80;;;;;;5015334;28;20396;-74
2022/01/20 11:54:05;;;;;;;79.85;46.90;;;103.30;2227.20;;;;;;5014550;28;20144;-75
2022/01/20 11:56:42;;;;;;;70.95;44.85;;;128.00;2252.80;;;;;;5012589;28;20053;-75
2022/01/20 11:59:10;;;;;;;69.82;46.10;;;128.00;2252.80;;;;;;5014970;28;20045;-75
2022/01/20 12:02:02;;;;;;;83.68;46.90;;;128.10;2252.80;;;;;;5014208;28;20108;-74
2022/01/20 12:04:37;;;;;;;79.43;46.50;;;128.10;2252.80;;;;;;4993572;28;20508;-75
2022/01/20 12:07:04;;;;;;;72.15;42.63;;;128.20;2252.80;;;;;;5014126;28;20064;-75
2022/01/20 12:09:38;;;;;;;65.47;39.58;;;128.20;2252.80;;;;;;5013671;28;20202;-74
2022/01/20 12:12:18;;;;;;;66.47;39.45;;;128.30;2252.80;;;;;;5013575;28;20028;-75
2022/01/20 12:14:45;;;;;;;67.10;38.55;;;128.40;2252.80;;;;;;4996787;28;20034;-74
2022/01/20 12:17:16;;;;;;;57.70;38.28;;;128.40;2252.80;;;;;;5013375;28;20113;-74
2022/01/20 12:19:46;;;;;;;63.00;34.38;;;128.40;2252.80;;;;;;5013800;28;20022;-76
2022/01/20 12:22:12;;;;;;;51.88;31.38;;;128.40;2252.80;;;;;;5013173;28;20026;-74
2022/01/20 12:24:51;;;;;;;55.70;35.05;;;128.60;2252.80;;;;;;5013643;28;20034;-74
2022/01/20 12:27:18;;;;;;;55.47;32.03;;;128.70;2252.80;;;;;;5014083;28;20109;-73
2022/01/20 12:29:44;;;;;;;54.58;31.10;;;128.70;2252.80;;;;;;5013232;28;20037;-74
2022/01/20 12:32:12;;;;;;;53.75;32.15;;;128.70;2252.80;;;;;;4996425;28;20034;-74
2022/01/20 12:34:39;;;;;;;48.22;31.77;;;128.80;2252.80;;;;;;4995761;28;20034;-74
2022/01/20 12:37:05;;;;;;;48.17;28.80;;;128.70;2252.80;;;;;;5013701;28;20030;-74
2022/01/20 12:39:34;;;;;;;48.60;31.25;;;128.50;2252.80;;;;;;4995071;28;20034;-74
2022/01/20 12:42:03;;;;;;;54.47;32.38;;;128.60;2252.80;;;;;;5013378;28;20034;-74
2022/01/20 12:44:41;;;;;;;50.45;29.38;;;128.50;2252.80;;;;;;5013486;28;20061;-74
2022/01/20 12:47:07;;;;;;;57.20;32.95;;;128.50;2252.80;;;;;;5013345;28;20030;-73
2022/01/20 12:49:33;;;;;;;49.20;32.50;;;128.50;2252.80;;;;;;5013868;28;20034;-74
2022/01/20 12:51:58;;;;;;;52.50;30.35;;;128.60;2252.80;;;;;;5007030;28;20092;-74
2022/01/20 12:54:30;;;;;;;54.88;31.90;;;128.50;2252.80;;;;;;4995905;28;20045;-74
2022/01/20 12:57:08;;;;;;;55.65;34.25;;;128.60;2252.80;;;;;;5002743;28;20062;-73
2022/01/20 12:59:37;;;;;;;49.80;29.40;;;128.50;2252.80;;;;;;4993119;28;20521;-74
2022/01/20 13:02:05;;;;;;;51.65;33.17;;;128.50;2252.80;;;;;;5013759;28;20392;-75
2022/01/20 13:04:33;;;;;;;50.83;32.75;;;128.50;2252.80;;;;;;4995467;28;20084;-74
2022/01/20 13:07:01;;;;;;;50.90;29.55;;;128.40;2252.80;;;;;;5013591;28;20109;-73
2022/01/20 13:09:42;;;;;;;60.50;33.00;;;128.30;2252.80;;;;;;5012686;28;20030;-74
2022/01/20 13:12:10;;;;;;;58.58;34.25;;;128.40;2252.80;;;;;;5013075;28;20061;-73
2022/01/20 13:14:45;;;;;;;61.47;37.90;;;128.20;2252.80;;;;;;5013435;28;20030;-73
2022/01/20 13:17:18;;;;;;;60.40;36.85;;;128.10;2252.80;;;;;;5010127;28;20040;-74
2022/01/20 13:19:46;;;;;;;59.28;35.05;;;128.10;2252.80;;;;;;5013016;28;20022;-74
2022/01/20 13:22:53;;;;;;;63.42;33.85;;;128.10;2252.80;;;;;;4996213;28;20840;-73
2022/01/20 13:25:22;;;;;;;76.28;39.97;;;128.10;2252.80;;;;;;5013113;28;20045;-73
2022/01/20 13:28:04;;;;;;;71.65;44.13;;;128.00;2252.80;;;;;;5012867;28;20034;-75